createdAt,value
2024-02-13T00:03:23.444Z,1.40
2024-02-13T00:08:36.304Z,1.10
2024-02-13T00:13:47.524Z,1.25
2024-02-13T00:18:49.598Z,1.80
2024-02-13T00:23:51.527Z,0.85
2024-02-13T00:28:53.367Z,0.90
2024-02-13T00:33:55.891Z,1.27
2024-02-13T00:38:58.201Z,1.13
2024-02-13T00:43:59.822Z,1.50
2024-02-13T00:49:01.815Z,2.55
2024-02-13T00:54:03.362Z,2.17
2024-02-13T00:59:05.035Z,1.98
2024-02-13T01:04:07.648Z,2.60
2024-02-13T01:09:09.372Z,2.67
2024-02-13T01:14:11.082Z,2.03
2024-02-13T01:19:13.948Z,2.65
2024-02-13T01:24:19.111Z,2.20
2024-02-13T01:29:21.142Z,2.70
2024-02-13T01:34:22.916Z,2.22
2024-02-13T01:39:25.301Z,3.00
2024-02-13T01:44:29.563Z,2.80
2024-02-13T01:49:31.356Z,2.15
2024-02-13T01:54:32.978Z,2.45
2024-02-13T01:59:39.946Z,3.83
2024-02-13T02:04:42.291Z,2.85
2024-02-13T02:09:44.629Z,3.05
2024-02-13T02:14:46.220Z,2.85
2024-02-13T02:19:48.016Z,2.50
2024-02-13T02:24:49.581Z,2.08
2024-02-13T02:29:51.288Z,2.45
2024-02-13T02:34:53.120Z,3.17
2024-02-13T02:39:55.032Z,2.67
2024-02-13T02:44:56.582Z,2.25
2024-02-13T02:49:58.104Z,3.35
2024-02-13T02:54:59.875Z,3.05
2024-02-13T03:00:08.053Z,3.10
2024-02-13T03:05:12.529Z,2.83
2024-02-13T03:10:14.374Z,3.58
2024-02-13T03:15:15.993Z,3.15
2024-02-13T03:20:17.784Z,3.83
2024-02-13T03:25:20.115Z,2.90
2024-02-13T03:30:21.685Z,2.80
2024-02-13T03:35:23.294Z,4.25
2024-02-13T03:40:24.815Z,2.90
2024-02-13T03:45:26.380Z,3.42
2024-02-13T03:50:28.092Z,2.70
2024-02-13T03:55:29.736Z,3.05
2024-02-13T04:00:31.290Z,2.85
2024-02-13T04:05:38.567Z,3.22
2024-02-13T04:10:40.141Z,3.70
2024-02-13T04:15:44.634Z,3.97
2024-02-13T04:20:46.364Z,4.05
2024-02-13T04:25:47.948Z,4.07
2024-02-13T04:30:49.907Z,4.50
2024-02-13T04:35:51.631Z,4.35
2024-02-13T04:40:53.243Z,3.58
2024-02-13T04:45:54.776Z,5.65
2024-02-13T04:50:56.367Z,5.50
2024-02-13T04:55:58.140Z,4.97
2024-02-13T05:01:10.704Z,5.05
2024-02-13T05:06:30.911Z,5.38
2024-02-13T05:11:32.559Z,5.82
2024-02-13T05:16:35.166Z,5.15
2024-02-13T05:21:37.245Z,4.85
2024-02-13T05:26:39.953Z,5.55
2024-02-13T05:31:42.366Z,4.80
2024-02-13T05:36:44.868Z,6.35
2024-02-13T05:41:46.504Z,5.30
2024-02-13T05:46:48.238Z,4.65
2024-02-13T05:51:49.837Z,5.70
2024-02-13T05:56:51.710Z,6.30
2024-02-13T06:01:54.885Z,6.65
2024-02-13T06:06:56.834Z,7.32
2024-02-13T06:11:58.608Z,7.00
2024-02-13T06:17:00.398Z,6.43
2024-02-13T06:22:02.055Z,5.68
2024-02-13T06:27:03.760Z,6.30
2024-02-13T06:32:05.826Z,7.60
2024-02-13T06:37:07.398Z,6.80
2024-02-13T06:42:09.012Z,7.13
2024-02-13T06:47:13.348Z,5.88
2024-02-13T06:52:14.963Z,6.65
2024-02-13T06:57:16.494Z,6.57
2024-02-13T07:02:18.087Z,5.93
2024-02-13T07:07:29.588Z,6.20
2024-02-13T07:12:39.567Z,6.88
2024-02-13T07:17:52.451Z,7.18
2024-02-13T07:22:58.780Z,7.57
2024-02-13T07:28:00.396Z,7.85
2024-02-13T07:33:03.284Z,7.80
2024-02-13T07:38:05.670Z,8.07
2024-02-13T07:43:07.342Z,7.43
2024-02-13T07:48:12.365Z,9.35
2024-02-13T07:53:14.053Z,8.32
2024-02-13T07:58:15.664Z,7.82
2024-02-13T08:03:17.203Z,8.13
2024-02-13T08:08:19.162Z,8.55
2024-02-13T08:13:20.920Z,9.63
2024-02-13T08:18:22.636Z,9.13
2024-02-13T08:23:26.972Z,8.50
2024-02-13T08:28:28.570Z,8.27
2024-02-13T08:33:30.281Z,8.02
2024-02-13T08:38:31.943Z,9.25
2024-02-13T08:43:33.933Z,9.07
2024-02-13T08:48:35.650Z,9.02
2024-02-13T08:53:37.498Z,10.43
2024-02-13T08:58:39.026Z,9.15
2024-02-13T09:03:40.574Z,8.95
2024-02-13T09:08:43.567Z,9.07
2024-02-13T09:13:47.331Z,10.55
2024-02-13T09:18:49.101Z,10.25
2024-02-13T09:23:50.854Z,9.05
2024-02-13T09:28:52.773Z,10.07
2024-02-13T09:33:55.517Z,10.48
2024-02-13T09:38:59.317Z,9.93
2024-02-13T09:44:03.589Z,7.28
2024-02-13T09:49:06.727Z,7.18
2024-02-13T09:59:12.898Z,7.40
2024-02-13T10:04:14.936Z,8.30
2024-02-13T10:09:16.488Z,9.60
2024-02-13T10:14:21.881Z,8.90
2024-02-13T10:19:23.760Z,10.20
2024-02-13T10:24:25.469Z,10.40
2024-02-13T10:29:27.084Z,8.77
2024-02-13T10:34:28.717Z,8.02
2024-02-13T10:39:30.599Z,7.55
2024-02-13T10:44:32.152Z,8.40
2024-02-13T10:49:44.442Z,9.25
2024-02-13T10:54:49.324Z,9.30
2024-02-13T10:59:50.866Z,9.75
2024-02-13T11:04:52.765Z,8.15
2024-02-13T11:09:54.534Z,8.50
2024-02-13T11:15:16.588Z,7.30
2024-02-13T11:20:25.388Z,6.68
2024-02-13T11:25:27.923Z,5.53
2024-02-13T11:30:29.663Z,6.28
2024-02-13T11:35:32.214Z,6.53
2024-02-13T11:40:34.524Z,5.97
2024-02-13T11:45:36.062Z,6.85
2024-02-13T11:50:37.785Z,6.13
2024-02-13T11:55:39.598Z,5.53
2024-02-13T12:00:45.743Z,6.65
2024-02-13T12:05:47.444Z,6.43
2024-02-13T12:10:49.918Z,8.27
2024-02-13T12:15:51.659Z,8.07
2024-02-13T12:20:53.687Z,7.22
2024-02-13T12:26:01.762Z,8.48
2024-02-13T12:31:03.725Z,8.32
2024-02-13T12:36:09.394Z,6.90
2024-02-13T12:41:11.106Z,6.63
2024-02-13T12:46:14.286Z,6.97
2024-02-13T12:51:16.870Z,7.93
2024-02-13T12:56:19.084Z,6.68
2024-02-13T13:01:25.084Z,6.57
2024-02-13T13:06:27.939Z,6.80
2024-02-13T13:11:29.883Z,5.35
2024-02-13T13:16:33.980Z,5.88
2024-02-13T13:21:36.177Z,5.07
2024-02-13T13:26:42.277Z,4.38
2024-02-13T13:31:45.351Z,5.63
2024-02-13T13:41:50.870Z,4.28
2024-02-13T13:46:53.309Z,4.80
2024-02-13T13:51:54.816Z,5.57
2024-02-13T13:56:57.168Z,4.88
2024-02-13T14:01:58.801Z,4.43
2024-02-13T14:07:00.791Z,4.40
2024-02-13T14:12:06.616Z,5.10
2024-02-13T14:17:08.157Z,4.05
2024-02-13T14:22:13.249Z,4.32
2024-02-13T14:27:16.642Z,3.90
2024-02-13T14:32:19.778Z,4.95
2024-02-13T14:37:22.633Z,5.63
2024-02-13T14:42:24.188Z,7.20
2024-02-13T14:47:25.805Z,5.63
2024-02-13T14:52:27.381Z,5.88
2024-02-13T14:57:28.966Z,5.28
2024-02-13T15:02:34.694Z,4.80
2024-02-13T15:07:39.446Z,5.55
2024-02-13T15:12:41.449Z,4.40
2024-02-13T15:17:43.839Z,5.22
2024-02-13T15:22:45.560Z,5.60
2024-02-13T15:27:47.156Z,4.95
2024-02-13T15:32:49.125Z,4.97
2024-02-13T15:38:09.364Z,5.80
2024-02-13T15:43:29.252Z,5.45
2024-02-13T15:48:31.166Z,5.20
2024-02-13T15:53:38.243Z,4.60
2024-02-13T15:58:40.131Z,3.78
2024-02-13T16:03:44.342Z,4.47
2024-02-13T16:08:46.234Z,4.25
2024-02-13T16:13:48.896Z,5.00
2024-02-13T16:18:51.105Z,3.58
2024-02-13T16:23:54.655Z,3.75
2024-02-13T16:28:59.092Z,3.63
2024-02-13T16:34:01.654Z,3.75
2024-02-13T16:39:05.213Z,4.15
2024-02-13T16:44:06.824Z,2.42
2024-02-13T16:49:09.893Z,2.70
2024-02-13T16:54:11.911Z,3.00
2024-02-13T16:59:15.790Z,2.10
2024-02-13T17:04:17.616Z,2.40
2024-02-13T17:09:19.153Z,2.38
2024-02-13T17:14:20.764Z,2.78
2024-02-13T17:19:22.437Z,2.72
2024-02-13T17:24:24.705Z,3.10
2024-02-13T17:29:27.227Z,2.70
2024-02-13T17:34:29.231Z,3.00
2024-02-13T17:39:30.845Z,2.80
2024-02-13T17:44:32.513Z,2.15
2024-02-13T17:49:35.738Z,2.47
2024-02-13T17:54:37.372Z,2.33
2024-02-13T17:59:38.934Z,2.90
2024-02-13T18:04:40.485Z,2.60
2024-02-13T18:09:42.149Z,3.65
2024-02-13T18:14:43.731Z,2.35
2024-02-13T18:19:45.387Z,3.15
2024-02-13T18:24:49.818Z,3.08
2024-02-13T18:29:53.613Z,2.85
2024-02-13T18:34:55.257Z,3.28
2024-02-13T18:39:57.565Z,4.35
2024-02-13T18:44:59.132Z,4.07
2024-02-13T18:50:00.682Z,4.05
2024-02-13T18:55:09.883Z,3.83
2024-02-13T19:00:12.037Z,3.63
2024-02-13T19:05:13.734Z,3.22
2024-02-13T19:10:15.513Z,3.30
2024-02-13T19:15:17.930Z,2.80
2024-02-13T19:20:23.220Z,3.05
2024-02-13T19:25:26.866Z,2.63
2024-02-13T19:30:29.368Z,2.63
2024-02-13T19:35:33.209Z,4.43
2024-02-13T19:40:34.793Z,3.20
2024-02-13T19:45:37.771Z,3.90
2024-02-13T19:50:40.255Z,4.97
2024-02-13T19:55:41.983Z,5.38
2024-02-13T20:00:44.812Z,5.90
2024-02-13T20:05:46.464Z,6.10
2024-02-13T20:10:48.225Z,6.15
2024-02-13T20:15:51.093Z,5.63
2024-02-13T20:20:52.712Z,6.25
2024-02-13T20:25:54.250Z,5.78
2024-02-13T20:30:55.799Z,6.10
2024-02-13T20:36:01.075Z,5.45
2024-02-13T20:41:02.875Z,6.05
2024-02-13T20:46:12.256Z,6.10
2024-02-13T20:51:14.066Z,6.53
2024-02-13T20:56:18.466Z,5.63
2024-02-13T21:01:20.511Z,5.63
2024-02-13T21:06:24.927Z,7.43
2024-02-13T21:11:27.310Z,6.32
2024-02-13T21:16:31.017Z,6.82
2024-02-13T21:21:51.903Z,5.65
2024-02-13T21:26:53.567Z,6.25
2024-02-13T21:31:55.123Z,6.00
2024-02-13T21:36:56.679Z,5.85
2024-02-13T21:41:59.107Z,6.18
2024-02-13T21:47:00.927Z,6.00
2024-02-13T21:52:02.454Z,6.13
2024-02-13T21:57:07.473Z,5.22
2024-02-13T22:02:09.134Z,5.82
2024-02-13T22:07:10.678Z,5.22
2024-02-13T22:12:12.281Z,5.22
2024-02-13T22:17:13.841Z,6.13
2024-02-13T22:22:15.401Z,4.95
2024-02-13T22:27:17.258Z,5.20
2024-02-13T22:32:18.785Z,5.43
2024-02-13T22:37:21.333Z,5.50
2024-02-13T22:42:23.396Z,6.00
2024-02-13T22:47:25.037Z,5.90
2024-02-13T22:52:27.282Z,4.95
2024-02-13T22:57:29.103Z,5.90
2024-02-13T23:02:32.104Z,5.05
2024-02-13T23:07:33.999Z,5.15
2024-02-13T23:12:38.682Z,5.28
2024-02-13T23:17:40.280Z,5.43
2024-02-13T23:22:41.855Z,4.65
2024-02-13T23:27:43.521Z,4.60
2024-02-13T23:32:45.397Z,4.28
2024-02-13T23:37:47.157Z,4.70
2024-02-13T23:42:51.791Z,4.40
2024-02-13T23:47:53.763Z,3.70
2024-02-13T23:52:58.021Z,4.60
2024-02-13T23:58:00.074Z,4.32
